Campanya meteocatpedra

Dades de l'estació automàtica la Granadella

?
?
Resum diari 21:30 TU
Dades diàries de l'estació meteorològica
Temperatura mitjana 23.7 °C
Temperatura màxima 31.4 °C 13:55 TU
Temperatura mínima 19.2 °C 1:24 TU
Humitat relativa mitjana 62%
Precipitació acumulada 0.0 mm
Ratxa màxima del vent (2 m) 30.6 km/h - 189º 21:28 TU
Irradiació solar global 28.0 MJ/m2

El tram horari està expressat en Temps Universal (TU). Cal sumar una hora en horari d'hivern i dues en horari d'estiu per passar a l'hora oficial.

la Granadella

Metadades estació meteorol´gica
Municipi La Granadella
Comarca Garrigues
Altitud 505 m
Data alta 30.01.1992
Estat actual Operativa
Dades de període
Període
TU
TM
°C
TX
°C
TN
°C
HRM
%
PPT
mm
VVM (2 m)
km/h
DVM (2 m)
graus
VVX (2 m)
km/h
RS
W/m2
00:00 - 00:30 19.3 19.4 19.2 81 0.0 13.0 164 25.9 0
00:30 - 01:00 19.3 19.3 19.3 82 0.0 11.5 160 24.1 0
01:00 - 01:30 19.3 19.3 19.2 82 0.0 10.4 161 22.0 0
01:30 - 02:00 19.4 19.5 19.4 82 0.0 10.8 162 18.7 0
02:00 - 02:30 19.5 19.6 19.4 82 0.0 9.7 163 19.1 0
02:30 - 03:00 19.7 19.8 19.7 80 0.0 7.9 155 15.8 0
03:00 - 03:30 19.8 19.8 19.8 80 0.0 6.1 163 14.8 0
03:30 - 04:00 19.8 19.8 19.7 80 0.0 8.6 167 16.2 0
04:00 - 04:30 19.8 19.8 19.7 80 0.0 9.4 173 15.8 2
04:30 - 05:00 19.8 19.9 19.7 80 0.0 9.0 176 17.3 21
05:00 - 05:30 19.9 20.0 19.9 80 0.0 6.5 176 11.2 36
05:30 - 06:00 20.0 20.1 20.0 80 0.0 6.1 179 13.3 38
06:00 - 06:30 20.2 20.5 19.9 80 0.0 7.6 181 14.0 178
06:30 - 07:00 21.1 21.5 20.6 76 0.0 8.3 169 16.9 278
07:00 - 07:30 21.1 21.4 20.8 74 0.0 9.4 184 18.0 221
07:30 - 08:00 21.8 22.2 21.6 69 0.0 8.6 184 18.4 345
08:00 - 08:30 22.3 23.2 21.7 65 0.0 7.6 205 15.8 520
08:30 - 09:00 23.3 24.8 22.6 59 0.0 6.1 187 15.1 617
09:00 - 09:30 25.1 26.0 24.4 52 0.0 6.5 173 15.5 853
09:30 - 10:00 26.0 26.6 25.4 49 0.0 6.5 177 14.0 900
10:00 - 10:30 25.9 26.3 25.2 47 0.0 7.2 201 17.3 928
10:30 - 11:00 26.7 27.4 25.8 44 0.0 6.8 215 21.6 972
11:00 - 11:30 27.4 28.0 26.8 40 0.0 6.8 207 19.4 850
11:30 - 12:00 26.9 27.2 26.6 40 0.0 6.1 173 19.4 602
12:00 - 12:30 28.5 30.4 27.2 35 0.0 6.8 181 15.8 950
12:30 - 13:00 29.4 30.3 28.4 30 0.0 6.8 201 21.2 1.002
13:00 - 13:30 29.9 30.8 29.2 25 0.0 6.8 188 21.6 948
13:30 - 14:00 30.8 31.4 29.9 23 0.0 7.9 181 19.8 881
14:00 - 14:30 28.9 30.3 27.4 41 0.0 13.7 170 25.6 555
14:30 - 15:00 28.6 29.5 27.6 46 0.0 13.3 163 27.0 681
15:00 - 15:30 28.9 29.5 28.2 46 0.0 13.3 161 27.4 723
15:30 - 16:00 28.1 28.6 27.4 47 0.0 15.1 175 26.6 640
16:00 - 16:30 27.6 28.3 27.1 49 0.0 14.0 174 25.2 488
16:30 - 17:00 27.2 27.4 26.9 51 0.0 14.4 180 29.5 465
17:00 - 17:30 26.7 27.1 26.2 53 0.0 13.3 183 27.0 373
17:30 - 18:00 25.9 26.4 25.4 57 0.0 13.0 171 22.7 249
18:00 - 18:30 25.1 25.5 24.7 60 0.0 13.3 170 25.6 163
18:30 - 19:00 24.1 24.7 23.5 63 0.0 14.8 173 25.6 82
19:00 - 19:30 23.1 23.5 22.6 67 0.0 14.4 181 27.0 20
19:30 - 20:00 22.2 22.5 21.9 71 0.0 15.5 182 29.2 2
20:00 - 20:30 21.7 21.9 21.4 73 0.0 15.5 183 26.6 0
20:30 - 21:00 21.2 21.4 21.0 75 0.0 14.4 181 29.9 0
21:00 - 21:30 20.9 21.0 20.7 77 0.0 16.2 180 30.6 0
21:30 - 22:00 20.6 20.7 20.5 77 0.0 15.5 184 27.4 0

Les dades en taronja només han passat un control de qualitat automàtic. Resta pendent la seva validació definitiva.